Time,TemperatureF,DewpointF,PressureIn,WindDirection,WindDirectionDegrees,WindSpeedMPH,WindSpeedGustMPH,Humidity,HourlyPrecipIn,Conditions,Clouds,dailyrainin,SoftwareType,DateUTC
2013-06-14 00:02:00,68.0,-99.9,-100.00,NNW,341,0.0,1.0,-999,0.00,,,0.00,,2013-06-14 05:02:00,
2013-06-14 00:40:00,67.0,-99.9,-100.00,NNW,337,2.0,2.0,-999,0.00,,,0.00,,2013-06-14 05:40:00,
2013-06-14 00:43:00,66.0,-99.9,-100.00,NNW,344,1.0,2.0,-999,0.00,,,0.00,,2013-06-14 05:43:00,
2013-06-14 00:52:00,66.0,-99.9,-100.00,NNW,344,1.0,2.0,-999,0.00,,,0.00,,2013-06-14 05:52:00,
2013-06-14 01:02:00,66.0,-99.9,-100.00,NNW,344,1.0,2.0,-999,0.00,,,0.00,,2013-06-14 06:02:00,
2013-06-14 01:12:00,67.0,-99.9,-100.00,NNW,337,2.0,2.0,-999,0.00,,,0.00,,2013-06-14 06:12:00,
2013-06-14 01:23:00,67.0,-99.9,-100.00,NNW,337,2.0,2.0,-999,0.00,,,0.00,,2013-06-14 06:23:00,
2013-06-14 01:34:00,67.0,-99.9,-100.00,NNW,337,2.0,2.0,-999,0.00,,,0.00,,2013-06-14 06:34:00,
2013-06-14 02:12:00,67.0,-99.9,-100.00,NW,319,2.0,2.0,-999,0.00,,,0.00,,2013-06-14 07:12:00,
2013-06-14 02:22:00,67.0,-99.9,-100.00,NW,319,2.0,2.0,-999,0.00,,,0.00,,2013-06-14 07:22:00,
2013-06-14 02:33:00,67.0,-99.9,-100.00,NW,319,2.0,2.0,-999,0.00,,,0.00,,2013-06-14 07:33:00,
2013-06-14 02:44:00,67.0,-99.9,-100.00,WNW,286,0.0,0.0,-999,0.00,,,0.00,,2013-06-14 07:44:00,
2013-06-14 02:53:00,67.0,-99.9,-100.00,WNW,286,0.0,0.0,-999,0.00,,,0.00,,2013-06-14 07:53:00,
2013-06-14 03:02:00,67.0,-99.9,-100.00,WNW,286,0.0,0.0,-999,0.00,,,0.00,,2013-06-14 08:02:00,
2013-06-14 03:12:00,64.0,-99.9,-100.00,NE,52,0.0,2.0,-999,0.00,,,0.00,,2013-06-14 08:12:00,
2013-06-14 03:23:00,64.0,-99.9,-100.00,NE,52,0.0,2.0,-999,0.00,,,0.00,,2013-06-14 08:23:00,
2013-06-14 03:33:00,64.0,-99.9,-100.00,NE,52,0.0,2.0,-999,0.00,,,0.00,,2013-06-14 08:33:00,
2013-06-14 03:43:00,62.0,-99.9,-100.00,SE,129,0.0,1.0,-999,0.00,,,0.00,,2013-06-14 08:43:00,
2013-06-14 03:53:00,62.0,-99.9,-100.00,SE,129,0.0,1.0,-999,0.00,,,0.00,,2013-06-14 08:53:00,
2013-06-14 04:02:00,62.0,-99.9,-100.00,SE,129,0.0,1.0,-999,0.00,,,0.00,,2013-06-14 09:02:00,
2013-06-14 04:12:00,64.0,-99.9,-100.00,ESE,109,3.0,5.0,-999,0.00,,,-99.99,,2013-06-14 09:12:00,
2013-06-14 04:22:00,64.0,-99.9,-100.00,ESE,109,3.0,5.0,-999,0.00,,,-99.99,,2013-06-14 09:22:00,
2013-06-14 04:33:00,64.0,-99.9,-100.00,ESE,109,3.0,5.0,-999,0.00,,,-99.99,,2013-06-14 09:33:00,
2013-06-14 04:40:00,65.0,-99.9,-100.00,SE,126,6.0,9.0,-999,0.00,,,0.00,,2013-06-14 09:40:00,
2013-06-14 04:43:00,64.0,-99.9,-100.00,ESE,116,4.0,6.0,-999,0.00,,,0.00,,2013-06-14 09:43:00,
2013-06-14 04:53:00,64.0,-99.9,-100.00,ESE,116,4.0,6.0,-999,0.00,,,0.00,,2013-06-14 09:53:00,
2013-06-14 05:02:00,64.0,-99.9,-100.00,ESE,116,4.0,6.0,-999,0.00,,,0.00,,2013-06-14 10:02:00,
2013-06-14 05:12:00,65.0,-99.9,-100.00,SE,126,6.0,9.0,-999,0.00,,,0.00,,2013-06-14 10:12:00,
2013-06-14 05:22:00,65.0,-99.9,-100.00,SE,126,6.0,9.0,-999,0.00,,,0.00,,2013-06-14 10:22:00,
2013-06-14 05:34:00,65.0,-99.9,-100.00,SE,126,6.0,9.0,-999,0.00,,,0.00,,2013-06-14 10:34:00,
2013-06-14 06:12:00,63.0,-99.9,-100.00,ESE,105,5.0,8.0,-999,0.00,,,0.00,,2013-06-14 11:12:00,
2013-06-14 06:23:00,63.0,-99.9,-100.00,ESE,105,5.0,8.0,-999,0.00,,,0.00,,2013-06-14 11:23:00,
2013-06-14 06:33:00,63.0,-99.9,-100.00,ESE,105,5.0,8.0,-999,0.00,,,0.00,,2013-06-14 11:33:00,
2013-06-14 06:43:00,62.0,-99.9,-100.00,East,101,3.0,5.0,-999,0.00,,,0.00,,2013-06-14 11:43:00,
2013-06-14 06:52:00,62.0,-99.9,-100.00,East,101,3.0,5.0,-999,0.00,,,0.00,,2013-06-14 11:52:00,
2013-06-14 07:02:00,62.0,-99.9,-100.00,East,101,3.0,5.0,-999,0.00,,,0.00,,2013-06-14 12:02:00,
2013-06-14 07:10:00,65.0,-99.9,-100.00,ESE,113,5.0,6.0,-999,0.00,,,0.00,,2013-06-14 12:10:00,
2013-06-14 07:12:00,63.0,-99.9,-100.00,ESE,110,5.0,6.0,-999,0.00,,,0.00,,2013-06-14 12:12:00,
2013-06-14 07:23:00,63.0,-99.9,-100.00,ESE,110,5.0,6.0,-999,0.00,,,0.00,,2013-06-14 12:23:00,
2013-06-14 07:33:00,63.0,-99.9,-100.00,ESE,110,5.0,6.0,-999,0.00,,,0.00,,2013-06-14 12:33:00,
2013-06-14 07:44:00,65.0,-99.9,-100.00,ESE,113,5.0,6.0,-999,0.00,,,0.00,,2013-06-14 12:44:00,
2013-06-14 07:53:00,65.0,-99.9,-100.00,ESE,113,5.0,6.0,-999,0.00,,,0.00,,2013-06-14 12:53:00,
2013-06-14 08:02:00,65.0,-99.9,-100.00,ESE,113,5.0,6.0,-999,0.00,,,0.00,,2013-06-14 13:02:00,
2013-06-14 08:43:00,66.0,-99.9,-100.00,ESE,113,6.0,12.0,-999,0.00,,,0.00,,2013-06-14 13:43:00,
2013-06-14 08:53:00,66.0,-99.9,-100.00,ESE,113,6.0,12.0,-999,0.00,,,0.00,,2013-06-14 13:53:00,
2013-06-14 09:02:00,66.0,-99.9,-100.00,ESE,113,6.0,12.0,-999,0.00,,,0.00,,2013-06-14 14:02:00,
2013-06-14 09:12:00,67.0,-99.9,-100.00,ESE,108,6.0,8.0,-999,0.00,,,0.00,,2013-06-14 14:12:00,
2013-06-14 09:22:00,67.0,-99.9,-100.00,ESE,108,6.0,8.0,-999,0.00,,,0.00,,2013-06-14 14:22:00,
2013-06-14 09:34:00,67.0,-99.9,-100.00,ESE,108,6.0,8.0,-999,0.00,,,0.00,,2013-06-14 14:34:00,
2013-06-14 09:43:00,68.0,-99.9,-100.00,ESE,123,7.0,10.0,-999,0.00,,,0.00,,2013-06-14 14:43:00,
2013-06-14 09:52:00,68.0,-99.9,-100.00,ESE,123,7.0,10.0,-999,0.00,,,0.00,,2013-06-14 14:52:00,
2013-06-14 10:02:00,68.0,-99.9,-100.00,ESE,123,7.0,10.0,-999,0.00,,,0.00,,2013-06-14 15:02:00,
2013-06-14 10:12:00,70.0,-99.9,-100.00,SE,142,8.0,13.0,-999,0.00,,,0.00,,2013-06-14 15:12:00,
2013-06-14 10:23:00,70.0,-99.9,-100.00,SE,142,8.0,13.0,-999,0.00,,,0.00,,2013-06-14 15:23:00,
2013-06-14 10:34:00,70.0,-99.9,-100.00,SE,142,8.0,13.0,-999,0.00,,,0.00,,2013-06-14 15:34:00,
2013-06-14 10:44:00,72.0,-99.9,-100.00,ESE,110,8.0,13.0,-999,0.00,,,0.00,,2013-06-14 15:44:00,
2013-06-14 10:53:00,72.0,-99.9,-100.00,ESE,110,8.0,13.0,-999,0.00,,,0.00,,2013-06-14 15:53:00,
2013-06-14 11:02:00,72.0,-99.9,-100.00,ESE,110,8.0,13.0,-999,0.00,,,0.00,,2013-06-14 16:02:00,
2013-06-14 11:10:00,73.0,-99.9,-100.00,SE,142,6.0,10.0,-999,0.00,,,0.00,,2013-06-14 16:10:00,
2013-06-14 11:11:00,73.0,-99.9,-100.00,SE,144,7.0,9.0,-999,0.00,,,0.00,,2013-06-14 16:11:00,
2013-06-14 11:23:00,73.0,-99.9,-100.00,SE,144,7.0,9.0,-999,0.00,,,0.00,,2013-06-14 16:23:00,
2013-06-14 11:33:00,73.0,-99.9,-100.00,SE,144,7.0,9.0,-999,0.00,,,0.00,,2013-06-14 16:33:00,
2013-06-14 11:43:00,73.0,-99.9,-100.00,SE,142,6.0,10.0,-999,0.00,,,0.00,,2013-06-14 16:43:00,
2013-06-14 11:53:00,73.0,-99.9,-100.00,SE,142,6.0,10.0,-999,0.00,,,0.00,,2013-06-14 16:53:00,
2013-06-14 12:02:00,73.0,-99.9,-100.00,SE,142,6.0,10.0,-999,0.00,,,0.00,,2013-06-14 17:02:00,
2013-06-14 12:43:00,75.0,-99.9,-100.00,SE,142,4.0,9.0,-999,0.00,,,0.00,,2013-06-14 17:43:00,
2013-06-14 12:54:00,75.0,-99.9,-100.00,SE,142,4.0,9.0,-999,0.00,,,0.00,,2013-06-14 17:54:00,
2013-06-14 13:02:00,75.0,-99.9,-100.00,SE,142,4.0,9.0,-999,0.00,,,0.00,,2013-06-14 18:02:00,
2013-06-14 13:12:00,75.0,-99.9,-100.00,SSE,159,4.0,5.0,-999,0.00,,,0.00,,2013-06-14 18:12:00,
2013-06-14 13:22:00,75.0,-99.9,-100.00,SSE,159,4.0,5.0,-999,0.00,,,0.00,,2013-06-14 18:22:00,
2013-06-14 13:33:00,75.0,-99.9,-100.00,SSE,159,4.0,5.0,-999,0.00,,,0.00,,2013-06-14 18:33:00,
2013-06-14 13:43:00,75.0,-99.9,-100.00,SSE,150,3.0,5.0,-999,0.00,,,0.00,,2013-06-14 18:43:00,
2013-06-14 13:52:00,75.0,-99.9,-100.00,SSE,150,3.0,5.0,-999,0.00,,,0.00,,2013-06-14 18:52:00,
2013-06-14 14:02:00,75.0,-99.9,-100.00,SSE,150,3.0,5.0,-999,0.00,,,0.00,,2013-06-14 19:02:00,
2013-06-14 14:11:00,75.0,-99.9,-100.00,SSE,167,3.0,4.0,-999,0.00,,,0.00,,2013-06-14 19:11:00,
2013-06-14 14:22:00,75.0,-99.9,-100.00,SSE,167,3.0,4.0,-999,0.00,,,0.00,,2013-06-14 19:22:00,
2013-06-14 14:33:00,75.0,-99.9,-100.00,SSE,167,3.0,4.0,-999,0.00,,,0.00,,2013-06-14 19:33:00,
2013-06-14 14:43:00,75.0,-99.9,-100.00,SSE,165,3.0,4.0,-999,0.00,,,-99.99,,2013-06-14 19:43:00,
2013-06-14 14:53:00,75.0,-99.9,-100.00,SSE,165,3.0,4.0,-999,0.00,,,-99.99,,2013-06-14 19:53:00,
2013-06-14 15:02:00,75.0,-99.9,-100.00,SSE,165,3.0,4.0,-999,0.00,,,-99.99,,2013-06-14 20:02:00,
2013-06-14 15:10:00,78.0,-99.9,-100.00,SE,127,9.0,11.0,-999,0.00,,,0.00,,2013-06-14 20:10:00,
2013-06-14 15:11:00,77.0,-99.9,-100.00,SSE,162,5.0,6.0,-999,0.00,,,0.00,,2013-06-14 20:11:00,
2013-06-14 15:22:00,77.0,-99.9,-100.00,SSE,162,5.0,6.0,-999,0.00,,,0.00,,2013-06-14 20:22:00,
2013-06-14 15:33:00,77.0,-99.9,-100.00,SSE,162,5.0,6.0,-999,0.00,,,0.00,,2013-06-14 20:33:00,
2013-06-14 15:43:00,78.0,-99.9,-100.00,SE,127,9.0,11.0,-999,0.00,,,0.00,,2013-06-14 20:43:00,
2013-06-14 15:53:00,78.0,-99.9,-100.00,SE,127,9.0,11.0,-999,0.00,,,0.00,,2013-06-14 20:53:00,
2013-06-14 16:02:00,78.0,-99.9,-100.00,SE,127,9.0,11.0,-999,0.00,,,0.00,,2013-06-14 21:02:00,
2013-06-14 17:12:00,78.0,-99.9,-100.00,SSE,152,6.0,10.0,-999,-99.99,,,0.00,,2013-06-14 22:12:00,
2013-06-14 17:22:00,78.0,-99.9,-100.00,SSE,152,6.0,10.0,-999,-99.99,,,0.00,,2013-06-14 22:22:00,
2013-06-14 17:34:00,78.0,-99.9,-100.00,SSE,152,6.0,10.0,-999,-99.99,,,0.00,,2013-06-14 22:34:00,
2013-06-14 17:43:00,79.0,-99.9,-100.00,SE,136,7.0,10.0,-999,0.00,,,0.00,,2013-06-14 22:43:00,
2013-06-14 17:53:00,79.0,-99.9,-100.00,SE,136,7.0,10.0,-999,0.00,,,0.00,,2013-06-14 22:53:00,
2013-06-14 18:02:00,79.0,-99.9,-100.00,SE,136,7.0,10.0,-999,0.00,,,0.00,,2013-06-14 23:02:00,
2013-06-14 18:12:00,79.0,-99.9,-100.00,SSE,156,6.0,8.0,-999,0.00,,,0.00,,2013-06-14 23:12:00,
2013-06-14 18:22:00,79.0,-99.9,-100.00,SSE,156,6.0,8.0,-999,0.00,,,0.00,,2013-06-14 23:22:00,
2013-06-14 18:33:00,79.0,-99.9,-100.00,SSE,156,6.0,8.0,-999,0.00,,,0.00,,2013-06-14 23:33:00,
2013-06-14 18:40:00,78.0,-99.9,-100.00,SW,235,2.0,4.0,-999,0.00,,,0.00,,2013-06-14 23:40:00,
2013-06-14 18:43:00,78.0,-99.9,-100.00,South,186,4.0,5.0,-999,0.00,,,0.00,,2013-06-14 23:43:00,
2013-06-14 18:52:00,78.0,-99.9,-100.00,South,186,4.0,5.0,-999,0.00,,,0.00,,2013-06-14 23:52:00,
2013-06-14 19:02:00,78.0,-99.9,-100.00,South,186,4.0,5.0,-999,0.00,,,0.00,,2013-06-15 00:02:00,
2013-06-14 19:12:00,78.0,-99.9,-100.00,SW,235,2.0,4.0,-999,0.00,,,0.00,,2013-06-15 00:12:00,
2013-06-14 19:23:00,78.0,-99.9,-100.00,SW,235,2.0,4.0,-999,0.00,,,0.00,,2013-06-15 00:23:00,
2013-06-14 19:34:00,78.0,-99.9,-100.00,SW,235,2.0,4.0,-999,0.00,,,0.00,,2013-06-15 00:34:00,
2013-06-14 20:10:00,75.0,-99.9,-100.00,SW,227,5.0,7.0,-999,0.00,,,0.00,,2013-06-15 01:10:00,
2013-06-14 20:43:00,75.0,-99.9,-100.00,SW,227,5.0,7.0,-999,0.00,,,0.00,,2013-06-15 01:43:00,
2013-06-14 20:54:00,75.0,-99.9,-100.00,SW,227,5.0,7.0,-999,0.00,,,0.00,,2013-06-15 01:54:00,
2013-06-14 21:02:00,75.0,-99.9,-100.00,SW,227,5.0,7.0,-999,0.00,,,0.00,,2013-06-15 02:02:00,
2013-06-14 21:43:00,73.0,-99.9,-100.00,SSW,192,3.0,4.0,-999,0.00,,,0.00,,2013-06-15 02:43:00,
2013-06-14 21:53:00,73.0,-99.9,-100.00,SSW,192,3.0,4.0,-999,0.00,,,0.00,,2013-06-15 02:53:00,
2013-06-14 22:02:00,73.0,-99.9,-100.00,SSW,192,3.0,4.0,-999,0.00,,,0.00,,2013-06-15 03:02:00,
2013-06-14 22:11:00,73.0,-99.9,-100.00,SE,133,7.0,12.0,-999,0.00,,,0.00,,2013-06-15 03:11:00,
2013-06-14 22:24:00,73.0,-99.9,-100.00,SE,133,7.0,12.0,-999,0.00,,,0.00,,2013-06-15 03:24:00,
2013-06-14 22:33:00,73.0,-99.9,-100.00,SE,133,7.0,12.0,-999,0.00,,,0.00,,2013-06-15 03:33:00,
2013-06-14 22:44:00,73.0,-99.9,-100.00,SE,143,11.0,17.0,-999,0.00,,,0.00,,2013-06-15 03:44:00,
2013-06-14 22:53:00,73.0,-99.9,-100.00,SE,143,11.0,17.0,-999,0.00,,,0.00,,2013-06-15 03:53:00,
2013-06-14 23:02:00,73.0,-99.9,-100.00,SE,143,11.0,17.0,-999,0.00,,,0.00,,2013-06-15 04:02:00,
2013-06-14 23:12:00,73.0,-99.9,-100.00,SSE,153,9.0,13.0,-999,0.00,,,0.00,,2013-06-15 04:12:00,
2013-06-14 23:22:00,73.0,-99.9,-100.00,SSE,153,9.0,13.0,-999,0.00,,,0.00,,2013-06-15 04:22:00,
2013-06-14 23:34:00,73.0,-99.9,-100.00,SSE,153,9.0,13.0,-999,0.00,,,0.00,,2013-06-15 04:34:00,
2013-06-14 23:43:00,72.0,-99.9,-100.00,SSW,203,1.0,5.0,-999,0.00,,,0.00,,2013-06-15 04:43:00,
2013-06-14 23:54:00,72.0,-99.9,-100.00,SSW,203,1.0,5.0,-999,0.00,,,0.00,,2013-06-15 04:54:00,